Time;durP1;ratioP1;P1;durP2;ratioP2;P2;SDS_P1;SDS_P2;PMS_P1;PMS_P2;Temp;Humidity;BMP_temperature;BMP_pressure;BME280_temperature;BME280_humidity;BME280_pressure;Samples;Min_cycle;Max_cycle;Signal;HPM_P1;HPM_P2
2021/10/16 00:01:17;;;;;;;18.20;5.70;;;4.70;99.90;;;5.57;100.00;101114.28;6077507;23;20058;-89
2021/10/16 00:03:43;;;;;;;17.00;6.25;;;4.70;99.90;;;5.53;100.00;101117.97;6077958;23;20007;-88
2021/10/16 00:06:08;;;;;;;17.27;6.32;;;4.60;99.90;;;5.55;100.00;101130.41;6078195;23;20010;-88
2021/10/16 00:08:35;;;;;;;18.23;6.78;;;4.70;99.90;;;5.51;100.00;101126.63;6077396;23;20010;-88
2021/10/16 00:11:01;;;;;;;15.73;6.00;;;4.60;99.90;;;5.45;100.00;101121.50;6077780;23;20100;-88
2021/10/16 00:13:27;;;;;;;16.38;5.88;;;4.60;99.90;;;5.44;100.00;101120.69;6077554;23;20010;-88
2021/10/16 00:15:53;;;;;;;16.67;7.18;;;4.70;99.90;;;5.44;100.00;101117.09;6078132;23;20065;-89
2021/10/16 00:18:19;;;;;;;15.20;5.65;;;4.60;99.90;;;5.44;100.00;101134.53;6077332;23;20010;-88
2021/10/16 00:20:46;;;;;;;21.58;6.32;;;4.50;99.90;;;5.41;100.00;101124.09;6077706;23;20011;-89
2021/10/16 00:23:12;;;;;;;19.65;5.82;;;4.50;99.90;;;5.36;100.00;101124.22;6077422;23;20014;-88
2021/10/16 00:25:37;;;;;;;16.73;5.20;;;4.50;99.90;;;5.31;100.00;101125.13;6076305;23;20407;-88
2021/10/16 00:28:04;;;;;;;12.88;5.55;;;4.40;99.90;;;5.30;100.00;101125.44;6077484;23;20014;-88
2021/10/16 00:32:58;;;;;;;20.15;7.00;;;4.40;99.90;;;5.25;100.00;101128.31;6073651;23;20030;-82
2021/10/16 00:35:24;;;;;;;18.00;5.93;;;4.30;99.90;;;5.20;100.00;101122.91;6074790;23;20007;-84
2021/10/16 00:37:49;;;;;;;15.65;5.78;;;4.30;99.90;;;5.16;100.00;101125.47;6074522;23;20011;-82
2021/10/16 00:40:15;;;;;;;15.98;5.15;;;4.30;99.90;;;5.26;100.00;101129.97;6049388;23;20031;-83
2021/10/16 00:42:52;;;;;;;11.88;5.50;;;4.20;99.90;;;5.11;100.00;101122.81;6101754;23;20011;-81
2021/10/16 00:45:22;;;;;;;15.93;5.30;;;4.20;99.90;;;5.08;100.00;101130.91;6078876;23;20110;-82
2021/10/16 00:47:50;;;;;;;19.48;5.50;;;4.20;99.90;;;5.02;100.00;101121.06;6054694;23;20014;-81
2021/10/16 00:50:21;;;;;;;9.88;4.65;;;4.10;99.90;;;4.96;100.00;101114.84;6054459;23;20066;-83
2021/10/16 00:52:49;;;;;;;11.30;5.25;;;4.10;99.90;;;4.92;100.00;101118.53;6105126;23;20451;-82
2021/10/16 00:55:20;;;;;;;13.32;5.20;;;4.00;99.90;;;4.89;100.00;101113.59;6104340;23;20006;-84
2021/10/16 00:57:47;;;;;;;13.60;4.85;;;4.00;99.90;;;4.89;100.00;101114.44;6079569;23;20444;-83
2021/10/16 01:00:14;;;;;;;13.95;5.63;;;4.00;99.90;;;4.91;100.00;101116.91;6080902;23;20045;-84
2021/10/16 01:02:42;;;;;;;15.98;5.45;;;4.00;99.90;;;4.91;100.00;101114.13;6081300;23;20010;-84
2021/10/16 01:05:10;;;;;;;13.77;5.22;;;4.00;99.90;;;4.87;100.00;101110.34;6081445;23;20014;-81
2021/10/16 01:07:37;;;;;;;11.93;4.72;;;4.00;99.90;;;4.85;100.00;101110.63;6057293;23;20010;-85
2021/10/16 01:10:11;;;;;;;16.45;4.78;;;3.90;99.90;;;4.81;100.00;101114.34;6059126;23;20014;-85
2021/10/16 01:12:39;;;;;;;17.67;5.63;;;3.90;99.90;;;4.79;100.00;101120.16;6083148;23;20007;-83
2021/10/16 01:15:18;;;;;;;18.30;5.35;;;3.90;99.90;;;4.77;100.00;101120.50;6082579;23;20344;-83
2021/10/16 01:17:48;;;;;;;18.20;5.10;;;3.90;99.90;;;4.74;100.00;101114.75;6108073;23;20007;-84
2021/10/16 01:20:23;;;;;;;18.48;5.10;;;3.90;99.90;;;4.79;100.00;101117.41;6108132;23;20006;-85
2021/10/16 01:22:52;;;;;;;13.95;4.80;;;3.90;99.90;;;4.86;100.00;101098.44;6108650;23;20003;-85
2021/10/16 01:25:23;;;;;;;20.02;5.43;;;3.90;99.90;;;4.92;100.00;101110.22;6106530;23;20010;-86
2021/10/16 01:27:50;;;;;;;13.13;5.07;;;4.00;99.90;;;4.96;100.00;101106.53;6108815;23;20007;-84
2021/10/16 01:30:23;;;;;;;19.80;5.40;;;4.10;99.90;;;4.99;100.00;101105.09;6082843;23;20011;-83
2021/10/16 01:32:50;;;;;;;19.20;5.57;;;4.10;99.90;;;5.04;100.00;101107.75;6060677;23;20014;-84
2021/10/16 01:35:16;;;;;;;14.60;5.28;;;4.10;99.90;;;5.05;100.00;101112.16;6108857;23;20014;-83
2021/10/16 01:37:49;;;;;;;17.92;4.78;;;4.10;99.90;;;5.08;100.00;101111.53;6084291;23;20007;-83
2021/10/16 01:40:16;;;;;;;18.77;5.50;;;4.10;99.90;;;5.07;100.00;101115.44;6085138;23;20387;-83
2021/10/16 01:42:43;;;;;;;18.58;5.00;;;4.10;99.90;;;5.03;100.00;101104.16;6109051;23;20021;-85
2021/10/16 01:45:20;;;;;;;14.60;5.47;;;4.10;99.90;;;5.05;100.00;101107.44;6084736;23;20016;-86
2021/10/16 01:47:53;;;;;;;18.02;5.20;;;4.20;99.90;;;5.12;100.00;101107.84;6109769;23;20007;-84
2021/10/16 01:50:22;;;;;;;19.80;6.85;;;4.20;99.90;;;5.18;100.00;101103.00;6036968;23;20011;-85
2021/10/16 01:52:48;;;;;;;14.60;4.78;;;4.20;99.90;;;5.17;100.00;101113.25;6084610;23;20017;-85
2021/10/16 01:55:14;;;;;;;16.38;5.82;;;4.20;99.90;;;5.17;100.00;101104.16;6084726;23;20057;-83
2021/10/16 01:57:41;;;;;;;32.13;6.00;;;4.20;99.90;;;5.19;100.00;101113.78;6076216;23;20011;-83
2021/10/16 02:00:09;;;;;;;19.60;5.60;;;4.20;99.90;;;5.22;100.00;101107.63;6103628;23;20463;-83
2021/10/16 02:02:36;;;;;;;17.80;5.13;;;4.20;99.90;;;5.30;100.00;101108.81;6102648;23;20403;-83
2021/10/16 02:05:04;;;;;;;20.98;5.93;;;4.20;99.90;;;5.35;100.00;101108.72;6077567;23;20011;-81
2021/10/16 02:07:29;;;;;;;12.95;5.45;;;4.20;99.90;;;5.40;100.00;101114.13;6102812;23;20006;-83
2021/10/16 02:09:55;;;;;;;15.27;4.97;;;4.20;99.90;;;5.40;100.00;101108.59;6077149;23;20014;-82
2021/10/16 02:12:21;;;;;;;14.85;5.47;;;4.20;99.90;;;5.39;100.00;101103.38;6076806;23;20014;-83
2021/10/16 02:14:47;;;;;;;14.00;4.85;;;4.20;99.90;;;5.37;100.00;101108.38;6102471;23;20006;-81
2021/10/16 02:17:13;;;;;;;16.23;5.72;;;4.20;99.90;;;5.33;100.00;101109.00;6101706;23;20097;-82
2021/10/16 02:19:39;;;;;;;11.20;4.68;;;4.20;99.90;;;5.32;100.00;101107.38;6077209;23;20068;-84
2021/10/16 02:22:05;;;;;;;12.55;5.07;;;4.20;99.90;;;5.29;100.00;101109.97;6077516;23;20006;-83
2021/10/16 02:24:30;;;;;;;22.60;5.18;;;4.20;99.90;;;5.28;100.00;101103.59;6103009;23;20464;-82
2021/10/16 02:26:56;;;;;;;14.00;5.35;;;4.10;99.90;;;5.27;100.00;101101.13;6102612;23;20003;-83
2021/10/16 02:29:22;;;;;;;13.48;5.00;;;4.10;99.90;;;5.27;100.00;101109.44;6077380;23;20734;-81
2021/10/16 02:31:48;;;;;;;12.50;4.90;;;4.10;99.90;;;5.25;100.00;101107.00;6076839;23;20014;-83
2021/10/16 02:34:14;;;;;;;15.35;5.97;;;4.10;99.90;;;5.27;100.00;101110.25;6077449;23;20014;-83
2021/10/16 02:36:39;;;;;;;15.60;5.82;;;4.20;99.90;;;5.33;100.00;101114.56;6103936;23;20507;-82
2021/10/16 02:39:05;;;;;;;13.90;5.05;;;4.20;99.90;;;5.38;100.00;101113.63;6078101;23;20025;-81
2021/10/16 02:41:31;;;;;;;19.33;5.68;;;4.20;99.90;;;5.44;100.00;101119.84;6076940;23;20006;-81
2021/10/16 02:43:57;;;;;;;17.42;5.85;;;4.30;99.90;;;5.47;100.00;101111.75;6077325;23;20061;-83
2021/10/16 02:46:22;;;;;;;14.93;5.28;;;4.30;99.90;;;5.48;100.00;101107.84;6077280;23;20022;-82
2021/10/16 02:48:49;;;;;;;13.38;4.97;;;4.30;99.90;;;5.53;100.00;101106.91;6103375;23;20010;-81
2021/10/16 02:51:16;;;;;;;12.98;5.30;;;4.30;99.90;;;5.55;100.00;101116.56;6103298;23;20021;-81
2021/10/16 02:53:41;;;;;;;17.55;5.35;;;4.40;99.90;;;5.56;100.00;101112.63;6103134;23;20009;-81
2021/10/16 02:56:07;;;;;;;15.07;5.50;;;4.40;99.90;;;5.56;100.00;101118.19;6077806;23;20344;-81
2021/10/16 02:58:33;;;;;;;14.43;5.38;;;4.40;99.90;;;5.45;100.00;101125.09;6103305;23;20010;-83
2021/10/16 03:00:59;;;;;;;18.70;5.45;;;4.40;99.90;;;5.36;100.00;101126.16;6103702;23;20487;-82
2021/10/16 03:03:25;;;;;;;11.52;5.18;;;4.40;99.90;;;5.29;100.00;101129.34;6103334;23;20018;-83
2021/10/16 03:05:50;;;;;;;16.95;5.85;;;4.30;99.90;;;5.25;100.00;101128.31;6078665;23;20289;-84
2021/10/16 03:08:16;;;;;;;11.13;5.15;;;4.30;99.90;;;5.24;100.00;101135.00;6077249;23;20006;-82
2021/10/16 03:10:43;;;;;;;15.32;4.63;;;4.30;99.90;;;5.21;100.00;101133.66;6078004;23;20073;-80
2021/10/16 03:13:09;;;;;;;17.25;5.32;;;4.30;99.90;;;5.15;100.00;101131.31;6104374;23;20078;-83
2021/10/16 03:15:36;;;;;;;15.77;4.88;;;4.20;99.90;;;5.09;100.00;101118.72;6103663;23;20010;-82
2021/10/16 03:18:02;;;;;;;13.68;5.22;;;4.20;99.90;;;5.06;100.00;101125.69;6103621;23;20016;-81
2021/10/16 03:20:28;;;;;;;16.25;5.90;;;4.20;99.90;;;5.06;100.00;101130.41;6102836;23;20006;-81
2021/10/16 03:22:54;;;;;;;9.43;4.53;;;4.10;99.90;;;5.05;100.00;101124.06;6077944;23;20006;-81
2021/10/16 03:25:19;;;;;;;14.23;5.70;;;4.10;99.90;;;5.03;100.00;101122.72;6077745;23;20384;-81
2021/10/16 03:27:45;;;;;;;17.10;5.68;;;4.10;99.90;;;4.99;100.00;101130.00;6103045;23;20007;-84
2021/10/16 03:30:11;;;;;;;13.95;5.15;;;4.10;99.90;;;4.91;100.00;101119.66;6103557;23;20017;-79
2021/10/16 03:32:37;;;;;;;16.55;6.03;;;4.00;99.90;;;4.87;100.00;101122.22;6077939;23;20424;-82
2021/10/16 03:35:04;;;;;;;17.40;5.35;;;4.00;99.90;;;4.88;100.00;101117.53;6078014;23;20011;-81
2021/10/16 03:37:30;;;;;;;16.50;5.72;;;4.00;99.90;;;5.00;100.00;101117.81;6078677;23;20011;-81
2021/10/16 03:39:55;;;;;;;17.77;6.05;;;4.00;99.90;;;5.13;100.00;101120.56;6078590;23;20026;-81
2021/10/16 03:42:21;;;;;;;15.63;5.18;;;4.00;99.90;;;5.18;100.00;101125.16;6104169;23;20010;-82
2021/10/16 03:44:47;;;;;;;14.38;5.03;;;4.00;99.90;;;5.21;100.00;101119.00;6079051;23;20010;-79
2021/10/16 03:47:13;;;;;;;12.90;5.25;;;4.00;99.90;;;5.24;100.00;101121.13;6079615;23;20421;-82
2021/10/16 03:49:39;;;;;;;17.70;5.82;;;4.10;99.90;;;5.26;100.00;101121.66;6104967;23;20417;-84
2021/10/16 03:52:05;;;;;;;18.33;6.70;;;4.10;99.90;;;5.35;100.00;101118.97;6103313;23;20018;-84
2021/10/16 03:54:32;;;;;;;22.60;7.45;;;4.20;99.90;;;5.38;100.00;101119.16;6078837;23;20081;-84
2021/10/16 03:56:58;;;;;;;13.90;5.13;;;4.30;99.90;;;5.43;100.00;101120.97;6104959;23;20340;-80
2021/10/16 03:59:24;;;;;;;22.27;7.20;;;4.30;99.90;;;5.36;100.00;101118.66;6105685;23;20014;-81
2021/10/16 04:01:50;;;;;;;14.15;4.63;;;4.20;99.90;;;5.26;100.00;101119.72;6079092;23;20020;-83
2021/10/16 04:04:16;;;;;;;17.10;5.75;;;4.20;99.90;;;5.20;100.00;101115.41;6080522;23;20010;-80
2021/10/16 04:06:42;;;;;;;13.20;5.47;;;4.10;99.90;;;5.23;100.00;101120.31;6083958;23;20006;-77
2021/10/16 04:09:07;;;;;;;21.13;6.13;;;4.10;99.90;;;5.20;100.00;101120.16;6081648;23;20078;-81
2021/10/16 04:11:33;;;;;;;15.88;5.22;;;4.00;99.90;;;5.17;100.00;101120.78;6112533;23;19998;-78
2021/10/16 04:13:59;;;;;;;17.08;6.15;;;4.00;99.90;;;5.12;100.00;101118.91;6081150;23;20073;-82
2021/10/16 04:16:25;;;;;;;15.63;5.57;;;4.00;99.90;;;5.09;100.00;101119.53;6104784;23;20006;-81
2021/10/16 04:18:51;;;;;;;16.45;5.95;;;4.00;99.90;;;5.07;100.00;101126.53;6080574;23;20317;-83
2021/10/16 04:21:17;;;;;;;14.60;5.95;;;4.00;99.90;;;5.07;100.00;101127.31;6077545;23;20152;-82
2021/10/16 04:23:42;;;;;;;22.85;6.90;;;4.00;99.90;;;5.06;100.00;101117.41;6102521;23;20014;-82
2021/10/16 04:26:08;;;;;;;22.50;6.13;;;4.00;99.90;;;5.08;100.00;101119.84;6076476;23;20006;-79
2021/10/16 04:28:34;;;;;;;17.95;6.10;;;4.00;99.90;;;5.13;100.00;101128.03;6077464;23;20344;-84
2021/10/16 04:31:00;;;;;;;15.23;5.28;;;4.00;99.90;;;5.14;100.00;101127.72;6102302;23;20011;-83
2021/10/16 04:33:25;;;;;;;18.48;5.38;;;4.00;99.90;;;4.93;100.00;101121.00;6076126;23;20006;-81
2021/10/16 04:35:51;;;;;;;15.88;6.40;;;4.00;99.90;;;4.83;100.00;101117.59;6101662;23;20022;-80
2021/10/16 04:38:17;;;;;;;15.35;6.43;;;3.90;99.90;;;4.82;100.00;101122.31;6103558;23;20014;-80
2021/10/16 04:40:43;;;;;;;26.45;6.50;;;3.90;99.90;;;4.86;100.00;101122.53;6103620;23;20017;-82
2021/10/16 04:43:10;;;;;;;18.17;6.70;;;3.90;99.90;;;4.92;100.00;101132.38;6076466;23;20010;-81
2021/10/16 04:45:36;;;;;;;18.55;6.47;;;4.00;99.90;;;4.99;100.00;101124.47;6053043;23;20078;-84
2021/10/16 04:48:07;;;;;;;15.40;5.43;;;4.10;99.90;;;5.14;100.00;101126.91;6101311;23;20014;-81
2021/10/16 04:50:33;;;;;;;13.13;5.45;;;4.10;99.90;;;5.27;100.00;101137.13;6103082;23;20128;-81
2021/10/16 04:52:59;;;;;;;15.82;5.63;;;4.10;99.90;;;5.33;100.00;101127.56;6077686;23;20007;-82
2021/10/16 04:55:25;;;;;;;15.20;6.05;;;4.20;99.90;;;5.25;100.00;101128.31;6076629;23;20085;-82
2021/10/16 04:57:51;;;;;;;17.27;5.80;;;4.20;99.90;;;5.35;100.00;101125.34;6102946;23;20007;-81
2021/10/16 05:00:17;;;;;;;23.55;7.22;;;4.20;99.90;;;5.48;100.00;101127.25;6077560;23;20014;-82
2021/10/16 05:02:44;;;;;;;16.80;5.85;;;4.30;99.90;;;5.65;100.00;101121.03;6077432;23;20025;-83
2021/10/16 05:05:10;;;;;;;18.48;6.85;;;4.40;99.90;;;5.73;100.00;101121.09;6076738;23;20325;-81
2021/10/16 05:07:36;;;;;;;12.77;6.30;;;4.50;99.90;;;5.82;100.00;101121.16;6107188;23;20017;-83
2021/10/16 05:10:04;;;;;;;11.82;5.38;;;4.60;99.90;;;5.89;100.00;101124.34;6115747;23;20062;-83
2021/10/16 05:12:30;;;;;;;9.43;4.72;;;4.70;99.90;;;5.94;100.00;101117.84;6077032;23;20007;-80
2021/10/16 05:14:56;;;;;;;13.55;4.78;;;4.70;99.90;;;5.96;100.00;101121.94;6102541;23;20060;-80
2021/10/16 05:17:22;;;;;;;14.55;4.90;;;4.70;99.90;;;6.01;100.00;101126.53;6103850;23;20062;-82
2021/10/16 05:19:48;;;;;;;18.42;5.45;;;4.80;99.90;;;6.05;100.00;101125.59;6103048;23;20074;-80
2021/10/16 05:22:14;;;;;;;12.30;5.22;;;4.80;99.90;;;6.11;100.00;101121.56;6103492;23;20018;-82
2021/10/16 05:24:40;;;;;;;16.15;5.03;;;4.80;99.90;;;6.16;100.00;101120.59;6077787;23;20348;-83
2021/10/16 05:27:06;;;;;;;10.38;5.35;;;4.90;99.90;;;6.22;100.00;101125.72;6078089;23;20089;-83
2021/10/16 05:29:31;;;;;;;9.93;4.28;;;5.00;99.90;;;6.31;100.00;101120.19;6077997;23;20013;-82
2021/10/16 05:31:57;;;;;;;15.48;5.30;;;5.10;99.90;;;6.38;100.00;101120.56;6078364;23;20014;-83
2021/10/16 05:34:23;;;;;;;20.77;5.82;;;5.10;99.90;;;6.46;100.00;101125.31;6077916;23;20007;-81
2021/10/16 05:36:49;;;;;;;15.60;5.70;;;5.20;99.90;;;6.56;100.00;101116.72;6104841;23;20321;-85
2021/10/16 05:39:17;;;;;;;22.67;6.07;;;5.30;99.90;;;6.66;100.00;101124.78;6104308;23;20006;-81
2021/10/16 05:41:43;;;;;;;16.73;6.07;;;5.40;99.90;;;6.78;100.00;101129.72;6104535;23;20010;-82
2021/10/16 05:44:09;;;;;;;14.68;5.57;;;5.50;99.90;;;6.83;100.00;101135.13;6103685;23;20081;-83
2021/10/16 05:46:36;;;;;;;14.13;5.10;;;5.60;99.90;;;6.88;100.00;101138.56;6105476;23;20014;-81
2021/10/16 05:49:04;;;;;;;14.32;5.05;;;5.60;99.90;;;6.89;100.00;101133.84;6105646;23;20037;-82
2021/10/16 05:51:30;;;;;;;10.75;5.20;;;5.60;99.90;;;6.88;100.00;101132.19;6104735;23;20002;-82
2021/10/16 05:53:57;;;;;;;15.52;5.45;;;5.60;99.90;;;6.74;100.00;101145.38;6080562;23;20006;-83
2021/10/16 05:56:23;;;;;;;13.13;5.30;;;5.60;99.90;;;6.67;100.00;101139.47;6080733;23;20006;-82
2021/10/16 05:58:48;;;;;;;14.52;5.53;;;5.60;99.90;;;6.62;100.00;101140.41;6106260;23;20009;-83
2021/10/16 06:01:14;;;;;;;15.95;6.70;;;5.50;99.90;;;6.57;100.00;101137.81;6106505;23;20029;-82
2021/10/16 06:03:40;;;;;;;15.40;6.00;;;5.50;99.90;;;6.57;100.00;101135.03;6110467;23;20009;-82
2021/10/16 06:06:06;;;;;;;13.43;5.15;;;5.50;99.90;;;6.57;100.00;101143.34;6111307;23;20425;-83
2021/10/16 06:08:32;;;;;;;17.38;5.57;;;5.50;99.90;;;6.53;100.00;101142.34;6110675;23;20006;-83
2021/10/16 06:10:57;;;;;;;13.60;4.93;;;5.50;99.90;;;6.55;100.00;101147.59;6109982;23;20445;-81
2021/10/16 06:13:24;;;;;;;10.55;4.05;;;5.50;99.90;;;6.56;100.00;101147.25;6084352;23;20021;-78
2021/10/16 06:15:50;;;;;;;12.85;5.00;;;5.50;99.90;;;6.56;100.00;101144.47;6110160;23;20376;-82
2021/10/16 06:18:16;;;;;;;10.30;4.43;;;5.50;99.90;;;6.58;100.00;101155.28;6084782;23;20010;-83
2021/10/16 06:20:43;;;;;;;11.23;4.47;;;5.50;99.90;;;6.59;100.00;101152.16;6082845;23;20021;-81
2021/10/16 06:23:08;;;;;;;11.05;4.85;;;5.50;99.90;;;6.65;100.00;101156.44;6105829;23;20006;-80
2021/10/16 06:25:34;;;;;;;12.52;4.65;;;5.60;99.90;;;6.68;100.00;101155.78;6080935;23;20021;-80
2021/10/16 06:28:00;;;;;;;9.10;4.03;;;5.60;99.90;;;6.70;100.00;101158.25;6080999;23;20044;-81
2021/10/16 06:30:27;;;;;;;11.70;5.10;;;5.60;99.90;;;6.73;100.00;101155.66;6106107;23;20042;-80
2021/10/16 06:32:54;;;;;;;14.70;5.00;;;5.60;99.90;;;6.80;100.00;101156.03;6076185;23;20038;-88
2021/10/16 06:35:20;;;;;;;12.15;5.20;;;5.70;99.90;;;6.82;100.00;101164.84;6107077;23;20475;-88
2021/10/16 06:37:46;;;;;;;15.73;5.20;;;5.70;99.90;;;6.86;100.00;101160.31;6107932;23;20061;-88
2021/10/16 06:40:12;;;;;;;15.13;6.53;;;5.80;99.90;;;6.94;100.00;101163.41;6110202;23;20014;-88
2021/10/16 06:42:40;;;;;;;16.77;5.53;;;5.90;99.90;;;6.99;100.00;101161.31;6111559;23;20046;-85
2021/10/16 06:45:07;;;;;;;18.65;4.88;;;5.90;99.90;;;7.06;100.00;101156.13;6096736;23;20010;-86
2021/10/16 06:47:33;;;;;;;12.68;5.00;;;6.00;99.90;;;7.04;100.00;101163.13;6096506;23;20018;-85
2021/10/16 06:49:58;;;;;;;10.32;4.45;;;6.00;99.90;;;7.14;100.00;101154.50;6095590;23;20027;-87
2021/10/16 06:52:24;;;;;;;9.35;4.40;;;6.10;99.90;;;7.21;100.00;101160.41;6075499;23;20041;-85
2021/10/16 06:54:50;;;;;;;17.40;5.50;;;6.10;99.90;;;7.21;100.00;101166.78;6076063;23;20034;-85
2021/10/16 06:57:17;;;;;;;17.58;5.07;;;6.20;99.90;;;7.21;100.00;101160.41;6075506;23;20014;-86
2021/10/16 06:59:43;;;;;;;12.40;5.07;;;6.20;99.90;;;7.41;100.00;101171.72;6078225;23;20037;-86
2021/10/16 07:02:10;;;;;;;12.55;4.68;;;6.30;99.90;;;7.48;100.00;101168.44;6076714;23;20693;-84
2021/10/16 07:04:35;;;;;;;10.30;4.47;;;6.40;99.90;;;7.58;100.00;101182.03;6076491;23;20006;-86
2021/10/16 07:07:02;;;;;;;11.82;4.93;;;6.40;99.90;;;7.63;100.00;101175.50;6076711;23;20070;-85
2021/10/16 07:09:28;;;;;;;10.48;4.80;;;6.50;99.90;;;7.72;100.00;101185.50;6076432;23;20010;-85
2021/10/16 07:11:55;;;;;;;15.60;5.95;;;6.50;99.90;;;7.76;100.00;101180.94;6078011;23;20011;-87
2021/10/16 07:14:21;;;;;;;13.77;4.82;;;6.60;99.90;;;7.79;100.00;101183.06;6087127;23;20003;-88
2021/10/16 07:16:50;;;;;;;11.70;5.45;;;6.60;99.90;;;7.87;100.00;101181.41;6090968;23;20010;-86
2021/10/16 07:19:16;;;;;;;12.27;5.28;;;6.70;99.90;;;7.92;100.00;101184.84;6078194;23;20507;-86
2021/10/16 07:21:42;;;;;;;11.45;5.50;;;6.80;99.90;;;8.06;100.00;101197.78;6076835;23;20452;-83
2021/10/16 07:24:08;;;;;;;13.25;5.07;;;6.80;99.90;;;8.06;100.00;101189.44;6076547;23;20098;-87
2021/10/16 07:26:36;;;;;;;11.65;5.25;;;6.90;99.90;;;8.14;100.00;101197.75;6076623;23;20556;-83
2021/10/16 07:29:03;;;;;;;12.00;5.05;;;7.00;99.90;;;8.24;100.00;101203.00;6101257;23;20432;-85
2021/10/16 07:31:29;;;;;;;15.57;6.07;;;7.00;99.90;;;8.31;100.00;101206.13;6076424;23;20041;-87
2021/10/16 07:34:03;;;;;;;9.00;5.15;;;7.10;99.90;;;8.39;100.00;101207.25;6102898;23;20006;-90
2021/10/16 07:36:36;;;;;;;13.15;5.22;;;7.10;99.90;;;8.46;100.00;101200.03;6076826;23;20452;-89
2021/10/16 07:39:07;;;;;;;14.20;5.70;;;7.30;99.90;;;8.52;100.00;101191.50;6077939;23;20058;-89
2021/10/16 07:41:35;;;;;;;11.00;5.18;;;7.30;99.90;;;8.59;100.00;101192.63;6054443;23;20078;-88
2021/10/16 07:44:04;;;;;;;14.70;5.93;;;7.40;99.90;;;8.65;100.00;101205.22;6076842;23;20014;-86
2021/10/16 07:46:30;;;;;;;13.15;5.93;;;7.40;99.90;;;8.77;100.00;101216.50;6052768;23;20114;-83
2021/10/16 07:48:56;;;;;;;11.68;5.85;;;7.50;99.90;;;8.87;100.00;101210.56;6075373;23;20393;-83
2021/10/16 07:51:22;;;;;;;12.32;6.00;;;7.60;99.90;;;9.01;100.00;101210.34;6075897;23;20006;-88
2021/10/16 07:53:48;;;;;;;11.82;5.20;;;7.70;99.90;;;9.14;100.00;101206.53;6074328;23;20089;-83
2021/10/16 07:56:14;;;;;;;15.90;6.43;;;7.90;99.90;;;9.15;100.00;101208.16;6073660;23;20006;-88
2021/10/16 07:58:42;;;;;;;15.88;6.63;;;7.90;99.90;;;9.19;100.00;101213.88;6078392;23;20042;-86
2021/10/16 08:01:10;;;;;;;16.10;6.53;;;7.90;99.90;;;9.24;100.00;101216.50;6106632;23;20374;-89
2021/10/16 08:03:37;;;;;;;12.32;6.20;;;7.90;99.90;;;9.43;100.00;101216.88;6074982;23;20021;-85
2021/10/16 08:06:05;;;;;;;20.20;6.25;;;8.10;99.90;;;9.55;100.00;101219.75;6098403;23;20018;-82
2021/10/16 08:08:31;;;;;;;12.07;5.57;;;8.20;99.90;;;9.67;100.00;101232.94;6098244;23;20017;-87
2021/10/16 08:10:59;;;;;;;10.77;6.30;;;8.30;99.90;;;9.79;100.00;101227.47;6099324;23;20455;-84
2021/10/16 08:13:26;;;;;;;13.98;6.97;;;8.40;99.90;;;9.79;99.77;101219.91;6074367;23;20348;-84
2021/10/16 08:15:53;;;;;;;15.48;5.38;;;8.50;99.90;;;9.76;99.65;101225.38;6075221;23;20463;-89
2021/10/16 08:18:21;;;;;;;12.32;6.38;;;8.50;99.90;;;9.95;99.86;101234.88;6076698;23;20014;-83
2021/10/16 08:20:49;;;;;;;14.90;5.40;;;8.60;99.90;;;10.01;97.90;101225.19;6073794;23;20014;-84
2021/10/16 08:23:16;;;;;;;10.82;5.20;;;8.60;99.90;;;10.11;98.16;101221.16;6074405;23;20034;-88
2021/10/16 08:25:42;;;;;;;9.63;5.53;;;8.80;99.90;;;10.26;97.71;101230.91;6076089;23;20011;-90
2021/10/16 08:28:15;;;;;;;11.63;5.25;;;8.90;99.90;;;10.45;96.56;101231.22;6077193;23;20072;-86
2021/10/16 08:30:50;;;;;;;14.60;4.70;;;9.00;99.90;;;10.70;95.11;101221.75;6075467;23;20029;-88
2021/10/16 08:33:22;;;;;;;14.90;4.90;;;9.10;99.90;;;10.80;94.07;101218.53;6074820;23;20018;-88
2021/10/16 08:35:51;;;;;;;17.80;5.28;;;9.20;99.90;;;10.84;95.31;101210.25;6080732;23;20017;-88
2021/10/16 08:38:19;;;;;;;17.65;4.82;;;9.40;99.90;;;11.04;93.70;101224.13;6079135;23;20016;-88
2021/10/16 08:40:48;;;;;;;13.18;4.75;;;9.50;99.90;;;11.16;93.02;101216.94;6078488;23;20088;-87
2021/10/16 08:43:14;;;;;;;18.67;4.85;;;9.50;99.90;;;11.05;90.78;101223.00;6028954;23;20010;-83
2021/10/16 08:45:42;;;;;;;11.63;4.43;;;9.50;99.90;;;11.26;90.83;101216.50;6074915;23;20014;-87
2021/10/16 08:48:08;;;;;;;20.45;5.07;;;9.70;99.90;;;11.33;91.54;101205.53;6073579;23;20009;-85
2021/10/16 08:50:35;;;;;;;17.45;5.90;;;9.80;99.90;;;11.38;90.71;101206.13;6074008;23;20015;-84
2021/10/16 08:53:02;;;;;;;19.30;5.72;;;9.80;99.90;;;11.45;90.89;101211.13;6073311;23;20456;-87
2021/10/16 08:55:29;;;;;;;15.73;5.18;;;9.90;99.90;;;11.58;90.78;101213.56;6073957;23;20010;-84
2021/10/16 08:57:56;;;;;;;11.60;5.70;;;10.00;99.90;;;11.70;90.31;101211.91;6100197;23;20089;-82
2021/10/16 09:00:54;;;;;;;13.98;5.38;;;10.10;99.90;;;11.89;88.97;101215.75;6104233;23;20090;-86
2021/10/16 09:03:41;;;;;;;22.13;6.03;;;10.20;99.90;;;11.98;89.91;101210.00;6049952;23;20024;-86
2021/10/16 09:06:27;;;;;;;19.27;5.70;;;10.40;99.90;;;12.11;88.71;101214.41;6074317;23;20014;-84
2021/10/16 09:09:10;;;;;;;14.60;5.32;;;10.50;99.90;;;12.33;88.37;101205.44;6073616;23;20134;-87
2021/10/16 09:11:48;;;;;;;17.23;5.07;;;10.70;99.90;;;12.37;87.09;101216.75;6073622;23;20468;-86
2021/10/16 09:14:28;;;;;;;14.13;6.03;;;10.80;99.90;;;12.42;88.62;101208.94;6050685;23;20097;-84
2021/10/16 09:16:56;;;;;;;12.57;5.35;;;10.90;99.90;;;12.61;86.91;101211.88;6073107;23;20018;-86
2021/10/16 09:19:34;;;;;;;16.13;4.90;;;11.00;99.90;;;12.83;86.94;101218.06;6072672;23;20375;-86
2021/10/16 09:22:17;;;;;;;15.55;5.82;;;11.10;99.90;;;12.86;86.53;101225.75;6074374;23;20010;-86
2021/10/16 09:24:48;;;;;;;13.43;4.95;;;11.20;99.90;;;13.05;84.89;101218.25;6099591;23;20072;-86
2021/10/16 09:27:23;;;;;;;12.05;4.45;;;11.30;99.90;;;13.20;85.20;101220.28;6099992;23;20003;-86
2021/10/16 09:30:06;;;;;;;17.08;5.80;;;11.50;99.90;;;13.40;85.81;101217.53;6075377;23;20014;-86
2021/10/16 09:32:32;;;;;;;14.68;5.63;;;11.60;99.90;;;13.52;84.59;101223.88;6099629;23;20111;-84
2021/10/16 09:35:08;;;;;;;12.57;4.28;;;11.70;99.90;;;13.57;83.28;101226.41;6099525;23;20017;-84
2021/10/16 09:37:52;;;;;;;12.07;4.38;;;11.80;99.90;;;13.79;82.55;101219.28;6050641;23;20045;-82
2021/10/16 09:40:42;;;;;;;15.65;5.45;;;12.00;99.90;;;13.81;82.87;101228.16;6075852;23;20018;-85
2021/10/16 09:43:23;;;;;;;19.73;4.95;;;12.20;99.90;;;14.09;81.10;101226.00;6080382;23;20093;-82
2021/10/16 09:46:14;;;;;;;11.35;3.88;;;12.20;99.90;;;14.30;78.36;101225.63;6086987;23;20038;-83
2021/10/16 09:48:40;;;;;;;11.50;3.92;;;12.40;99.90;;;14.45;78.76;101219.16;6102093;23;20010;-84
2021/10/16 09:51:06;;;;;;;13.35;4.47;;;12.50;99.90;;;14.43;79.31;101227.16;6101287;23;20093;-84
2021/10/16 09:53:33;;;;;;;16.85;4.45;;;12.60;99.90;;;14.43;78.83;101220.72;6100550;23;20468;-84
2021/10/16 09:56:02;;;;;;;17.38;5.15;;;12.60;99.90;;;14.45;78.54;101227.59;6100885;23;20010;-83
2021/10/16 09:58:32;;;;;;;13.75;5.25;;;12.70;99.90;;;14.42;78.35;101224.69;6074563;23;20046;-85
2021/10/16 10:00:59;;;;;;;15.98;4.80;;;12.70;99.90;;;14.54;78.99;101216.94;6100240;23;20011;-84
2021/10/16 10:03:31;;;;;;;23.70;4.35;;;12.70;99.90;;;14.48;79.11;101226.84;6100604;23;20006;-84
2021/10/16 10:05:57;;;;;;;13.63;5.03;;;12.70;99.90;;;14.42;79.34;101224.69;6074308;23;20204;-83
2021/10/16 10:08:24;;;;;;;13.70;4.40;;;12.80;99.90;;;14.51;78.62;101220.47;6099065;23;20029;-85
2021/10/16 10:10:51;;;;;;;16.10;4.40;;;12.80;99.90;;;14.52;78.53;101224.91;6074225;23;20069;-85
2021/10/16 10:13:17;;;;;;;8.60;3.22;;;12.90;99.90;;;14.97;76.79;101232.63;6073588;23;20078;-81
2021/10/16 10:15:44;;;;;;;16.70;4.10;;;13.10;99.90;;;15.25;74.35;101232.34;6072942;23;20037;-82
2021/10/16 10:19:12;;;;;;;11.00;3.25;;;13.30;99.90;;;16.01;71.96;101222.69;6098704;23;20045;-82